sensor_id;sensor_type;location;lat;lon;timestamp;P1;durP1;ratioP1;P2;durP2;ratioP2
19971;SDS011;10147;16.402;102.848;2022-08-19T00:00:27;18.83;;;13.68;;
19971;SDS011;10147;16.402;102.848;2022-08-19T00:02:57;21.65;;;16.70;;
19971;SDS011;10147;16.402;102.848;2022-08-19T00:05:28;19.55;;;15.73;;
19971;SDS011;10147;16.402;102.848;2022-08-19T00:07:58;20.70;;;15.10;;
19971;SDS011;10147;16.402;102.848;2022-08-19T00:10:28;20.58;;;16.50;;
19971;SDS011;10147;16.402;102.848;2022-08-19T00:12:58;26.65;;;16.20;;
19971;SDS011;10147;16.402;102.848;2022-08-19T00:15:29;17.45;;;15.55;;
19971;SDS011;10147;16.402;102.848;2022-08-19T00:18:02;21.58;;;16.85;;
19971;SDS011;10147;16.402;102.848;2022-08-19T00:20:33;18.95;;;16.90;;
19971;SDS011;10147;16.402;102.848;2022-08-19T00:23:04;23.65;;;21.38;;
19971;SDS011;10147;16.402;102.848;2022-08-19T00:25:35;17.50;;;15.05;;
19971;SDS011;10147;16.402;102.848;2022-08-19T00:28:06;19.92;;;15.07;;
19971;SDS011;10147;16.402;102.848;2022-08-19T00:30:36;19.50;;;16.45;;
19971;SDS011;10147;16.402;102.848;2022-08-19T00:33:06;20.80;;;16.90;;
19971;SDS011;10147;16.402;102.848;2022-08-19T00:35:37;17.50;;;15.10;;
19971;SDS011;10147;16.402;102.848;2022-08-19T00:38:08;17.50;;;15.50;;
19971;SDS011;10147;16.402;102.848;2022-08-19T00:40:38;19.00;;;13.55;;
19971;SDS011;10147;16.402;102.848;2022-08-19T00:43:09;19.42;;;14.98;;
19971;SDS011;10147;16.402;102.848;2022-08-19T00:45:42;20.85;;;18.65;;
19971;SDS011;10147;16.402;102.848;2022-08-19T00:48:13;22.98;;;18.60;;
19971;SDS011;10147;16.402;102.848;2022-08-19T00:50:45;19.92;;;17.13;;
19971;SDS011;10147;16.402;102.848;2022-08-19T00:53:19;17.85;;;13.70;;
19971;SDS011;10147;16.402;102.848;2022-08-19T00:55:50;19.10;;;13.60;;
19971;SDS011;10147;16.402;102.848;2022-08-19T00:58:22;16.15;;;13.23;;
19971;SDS011;10147;16.402;102.848;2022-08-19T01:00:54;16.70;;;13.43;;
19971;SDS011;10147;16.402;102.848;2022-08-19T01:03:26;16.55;;;12.25;;
19971;SDS011;10147;16.402;102.848;2022-08-19T01:06:16;13.98;;;11.57;;
19971;SDS011;10147;16.402;102.848;2022-08-19T01:08:47;13.90;;;12.18;;
19971;SDS011;10147;16.402;102.848;2022-08-19T01:11:17;13.68;;;12.23;;
19971;SDS011;10147;16.402;102.848;2022-08-19T01:13:48;20.35;;;11.60;;
19971;SDS011;10147;16.402;102.848;2022-08-19T01:16:20;14.40;;;10.98;;
19971;SDS011;10147;16.402;102.848;2022-08-19T01:18:52;14.35;;;11.43;;
19971;SDS011;10147;16.402;102.848;2022-08-19T01:24:09;14.45;;;11.82;;
19971;SDS011;10147;16.402;102.848;2022-08-19T01:26:40;16.05;;;10.82;;
19971;SDS011;10147;16.402;102.848;2022-08-19T01:29:13;12.93;;;10.52;;
19971;SDS011;10147;16.402;102.848;2022-08-19T01:31:43;14.85;;;9.93;;
19971;SDS011;10147;16.402;102.848;2022-08-19T01:34:14;15.70;;;10.00;;
19971;SDS011;10147;16.402;102.848;2022-08-19T01:36:45;13.07;;;10.73;;
19971;SDS011;10147;16.402;102.848;2022-08-19T01:39:19;16.05;;;10.43;;
19971;SDS011;10147;16.402;102.848;2022-08-19T01:41:50;17.73;;;10.68;;
19971;SDS011;10147;16.402;102.848;2022-08-19T01:44:23;14.55;;;10.50;;
19971;SDS011;10147;16.402;102.848;2022-08-19T01:46:54;11.57;;;9.60;;
19971;SDS011;10147;16.402;102.848;2022-08-19T01:49:25;12.20;;;9.50;;
19971;SDS011;10147;16.402;102.848;2022-08-19T01:51:55;15.13;;;9.90;;
19971;SDS011;10147;16.402;102.848;2022-08-19T01:54:27;19.75;;;15.60;;
19971;SDS011;10147;16.402;102.848;2022-08-19T01:57:02;13.23;;;9.75;;
19971;SDS011;10147;16.402;102.848;2022-08-19T01:59:33;17.33;;;12.40;;
19971;SDS011;10147;16.402;102.848;2022-08-19T02:02:05;13.88;;;10.77;;
19971;SDS011;10147;16.402;102.848;2022-08-19T02:04:37;13.32;;;9.05;;
19971;SDS011;10147;16.402;102.848;2022-08-19T02:07:08;13.15;;;9.52;;
19971;SDS011;10147;16.402;102.848;2022-08-19T02:09:38;17.00;;;10.38;;
19971;SDS011;10147;16.402;102.848;2022-08-19T02:12:09;13.73;;;11.10;;
19971;SDS011;10147;16.402;102.848;2022-08-19T02:14:39;19.63;;;12.77;;
19971;SDS011;10147;16.402;102.848;2022-08-19T02:17:09;14.88;;;10.15;;
19971;SDS011;10147;16.402;102.848;2022-08-19T02:19:39;13.65;;;10.88;;
19971;SDS011;10147;16.402;102.848;2022-08-19T02:22:10;13.88;;;11.63;;
19971;SDS011;10147;16.402;102.848;2022-08-19T02:24:40;13.93;;;10.75;;
19971;SDS011;10147;16.402;102.848;2022-08-19T02:27:10;18.23;;;12.13;;
19971;SDS011;10147;16.402;102.848;2022-08-19T02:29:41;16.55;;;10.55;;
19971;SDS011;10147;16.402;102.848;2022-08-19T02:32:11;12.73;;;10.38;;
19971;SDS011;10147;16.402;102.848;2022-08-19T02:34:42;17.00;;;10.43;;
19971;SDS011;10147;16.402;102.848;2022-08-19T02:37:13;14.18;;;9.27;;
19971;SDS011;10147;16.402;102.848;2022-08-19T02:40:03;18.23;;;13.63;;
19971;SDS011;10147;16.402;102.848;2022-08-19T02:42:39;17.50;;;9.20;;
19971;SDS011;10147;16.402;102.848;2022-08-19T02:45:10;15.65;;;8.75;;
19971;SDS011;10147;16.402;102.848;2022-08-19T02:47:40;16.58;;;9.95;;
19971;SDS011;10147;16.402;102.848;2022-08-19T02:50:11;17.27;;;9.43;;
19971;SDS011;10147;16.402;102.848;2022-08-19T02:52:43;11.07;;;9.65;;
19971;SDS011;10147;16.402;102.848;2022-08-19T02:55:14;28.27;;;22.52;;
19971;SDS011;10147;16.402;102.848;2022-08-19T02:57:44;20.92;;;12.63;;
19971;SDS011;10147;16.402;102.848;2022-08-19T03:00:15;15.00;;;12.20;;
19971;SDS011;10147;16.402;102.848;2022-08-19T03:02:46;16.25;;;12.40;;
19971;SDS011;10147;16.402;102.848;2022-08-19T03:05:17;13.02;;;8.82;;
19971;SDS011;10147;16.402;102.848;2022-08-19T03:08:08;14.65;;;9.30;;
19971;SDS011;10147;16.402;102.848;2022-08-19T03:10:43;13.57;;;8.90;;
19971;SDS011;10147;16.402;102.848;2022-08-19T03:13:16;12.90;;;9.32;;
19971;SDS011;10147;16.402;102.848;2022-08-19T03:15:47;12.13;;;8.45;;
19971;SDS011;10147;16.402;102.848;2022-08-19T03:18:18;12.60;;;7.60;;
19971;SDS011;10147;16.402;102.848;2022-08-19T03:20:51;13.80;;;8.10;;
19971;SDS011;10147;16.402;102.848;2022-08-19T03:23:23;13.05;;;7.50;;
19971;SDS011;10147;16.402;102.848;2022-08-19T03:25:53;16.67;;;8.30;;
19971;SDS011;10147;16.402;102.848;2022-08-19T03:28:43;11.70;;;8.07;;
19971;SDS011;10147;16.402;102.848;2022-08-19T03:31:25;15.18;;;7.63;;
19971;SDS011;10147;16.402;102.848;2022-08-19T03:34:18;11.65;;;8.38;;
19971;SDS011;10147;16.402;102.848;2022-08-19T03:36:48;12.15;;;9.10;;
19971;SDS011;10147;16.402;102.848;2022-08-19T03:39:20;11.35;;;7.45;;
19971;SDS011;10147;16.402;102.848;2022-08-19T03:41:51;11.40;;;8.05;;
19971;SDS011;10147;16.402;102.848;2022-08-19T03:44:41;13.35;;;7.57;;
19971;SDS011;10147;16.402;102.848;2022-08-19T03:47:13;13.90;;;7.82;;
19971;SDS011;10147;16.402;102.848;2022-08-19T03:49:45;13.48;;;7.93;;
19971;SDS011;10147;16.402;102.848;2022-08-19T03:52:15;9.70;;;7.30;;
19971;SDS011;10147;16.402;102.848;2022-08-19T03:54:45;11.52;;;6.53;;
19971;SDS011;10147;16.402;102.848;2022-08-19T03:57:15;12.52;;;7.90;;
19971;SDS011;10147;16.402;102.848;2022-08-19T03:59:46;10.32;;;7.45;;
19971;SDS011;10147;16.402;102.848;2022-08-19T04:02:16;11.02;;;8.40;;
19971;SDS011;10147;16.402;102.848;2022-08-19T04:04:47;14.00;;;9.23;;
19971;SDS011;10147;16.402;102.848;2022-08-19T04:07:17;11.65;;;8.25;;
19971;SDS011;10147;16.402;102.848;2022-08-19T04:09:50;11.75;;;8.27;;
19971;SDS011;10147;16.402;102.848;2022-08-19T04:12:21;14.93;;;9.07;;
19971;SDS011;10147;16.402;102.848;2022-08-19T04:14:51;20.90;;;18.75;;
19971;SDS011;10147;16.402;102.848;2022-08-19T04:17:21;23.05;;;21.08;;
19971;SDS011;10147;16.402;102.848;2022-08-19T04:19:52;25.38;;;23.27;;
19971;SDS011;10147;16.402;102.848;2022-08-19T04:22:22;11.98;;;8.77;;
19971;SDS011;10147;16.402;102.848;2022-08-19T04:24:55;12.45;;;10.02;;
19971;SDS011;10147;16.402;102.848;2022-08-19T04:27:25;9.90;;;8.40;;
19971;SDS011;10147;16.402;102.848;2022-08-19T04:29:56;13.25;;;8.52;;
19971;SDS011;10147;16.402;102.848;2022-08-19T04:32:26;12.88;;;8.43;;
19971;SDS011;10147;16.402;102.848;2022-08-19T04:34:57;18.27;;;10.23;;
19971;SDS011;10147;16.402;102.848;2022-08-19T04:37:45;15.45;;;10.35;;
19971;SDS011;10147;16.402;102.848;2022-08-19T04:40:15;9.57;;;7.55;;
19971;SDS011;10147;16.402;102.848;2022-08-19T04:43:05;12.90;;;8.30;;
19971;SDS011;10147;16.402;102.848;2022-08-19T04:45:37;12.27;;;8.15;;
19971;SDS011;10147;16.402;102.848;2022-08-19T04:48:10;14.63;;;8.25;;
19971;SDS011;10147;16.402;102.848;2022-08-19T04:50:54;10.85;;;7.47;;
19971;SDS011;10147;16.402;102.848;2022-08-19T04:53:28;11.15;;;8.55;;
19971;SDS011;10147;16.402;102.848;2022-08-19T04:56:05;11.90;;;8.27;;
19971;SDS011;10147;16.402;102.848;2022-08-19T04:58:36;9.55;;;7.30;;
19971;SDS011;10147;16.402;102.848;2022-08-19T05:01:08;10.45;;;8.65;;
19971;SDS011;10147;16.402;102.848;2022-08-19T05:03:39;12.93;;;8.60;;
19971;SDS011;10147;16.402;102.848;2022-08-19T05:06:11;10.63;;;7.65;;
19971;SDS011;10147;16.402;102.848;2022-08-19T05:08:41;9.40;;;7.80;;
19971;SDS011;10147;16.402;102.848;2022-08-19T05:11:14;12.98;;;7.80;;
19971;SDS011;10147;16.402;102.848;2022-08-19T05:13:46;10.40;;;8.02;;
19971;SDS011;10147;16.402;102.848;2022-08-19T05:16:19;9.85;;;8.00;;
19971;SDS011;10147;16.402;102.848;2022-08-19T05:18:49;11.13;;;8.68;;
19971;SDS011;10147;16.402;102.848;2022-08-19T05:21:40;9.90;;;8.20;;
19971;SDS011;10147;16.402;102.848;2022-08-19T05:24:30;14.23;;;8.73;;
19971;SDS011;10147;16.402;102.848;2022-08-19T05:27:17;13.07;;;8.90;;
19971;SDS011;10147;16.402;102.848;2022-08-19T05:29:48;12.13;;;9.02;;
19971;SDS011;10147;16.402;102.848;2022-08-19T05:32:18;11.82;;;8.20;;
19971;SDS011;10147;16.402;102.848;2022-08-19T05:34:50;11.40;;;7.68;;
19971;SDS011;10147;16.402;102.848;2022-08-19T05:37:20;13.18;;;8.30;;
19971;SDS011;10147;16.402;102.848;2022-08-19T05:39:50;11.73;;;8.32;;
19971;SDS011;10147;16.402;102.848;2022-08-19T05:42:21;11.93;;;8.73;;
19971;SDS011;10147;16.402;102.848;2022-08-19T05:44:51;11.25;;;7.60;;
19971;SDS011;10147;16.402;102.848;2022-08-19T05:47:22;10.88;;;7.75;;
19971;SDS011;10147;16.402;102.848;2022-08-19T05:49:53;12.25;;;8.02;;
19971;SDS011;10147;16.402;102.848;2022-08-19T05:52:24;10.75;;;7.13;;
19971;SDS011;10147;16.402;102.848;2022-08-19T05:54:58;9.50;;;7.30;;
19971;SDS011;10147;16.402;102.848;2022-08-19T05:57:28;9.65;;;7.55;;
19971;SDS011;10147;16.402;102.848;2022-08-19T05:59:59;8.15;;;7.35;;
19971;SDS011;10147;16.402;102.848;2022-08-19T06:02:37;9.82;;;7.05;;
19971;SDS011;10147;16.402;102.848;2022-08-19T06:05:08;11.25;;;7.60;;
19971;SDS011;10147;16.402;102.848;2022-08-19T06:07:39;9.80;;;8.20;;
19971;SDS011;10147;16.402;102.848;2022-08-19T06:10:10;9.13;;;7.20;;
19971;SDS011;10147;16.402;102.848;2022-08-19T06:12:41;10.77;;;8.07;;
19971;SDS011;10147;16.402;102.848;2022-08-19T06:15:12;8.30;;;7.43;;
19971;SDS011;10147;16.402;102.848;2022-08-19T06:17:42;9.70;;;7.95;;
19971;SDS011;10147;16.402;102.848;2022-08-19T06:20:14;9.32;;;7.57;;
19971;SDS011;10147;16.402;102.848;2022-08-19T06:23:06;9.38;;;7.30;;
19971;SDS011;10147;16.402;102.848;2022-08-19T06:25:43;9.95;;;8.02;;
19971;SDS011;10147;16.402;102.848;2022-08-19T06:28:13;8.75;;;7.80;;
19971;SDS011;10147;16.402;102.848;2022-08-19T06:30:44;10.88;;;7.68;;
19971;SDS011;10147;16.402;102.848;2022-08-19T06:33:14;10.45;;;7.47;;
19971;SDS011;10147;16.402;102.848;2022-08-19T06:35:45;11.20;;;7.93;;
19971;SDS011;10147;16.402;102.848;2022-08-19T06:38:15;12.35;;;8.55;;
19971;SDS011;10147;16.402;102.848;2022-08-19T06:40:46;9.63;;;7.82;;
19971;SDS011;10147;16.402;102.848;2022-08-19T06:43:16;9.55;;;7.38;;
19971;SDS011;10147;16.402;102.848;2022-08-19T06:45:55;9.65;;;7.07;;
19971;SDS011;10147;16.402;102.848;2022-08-19T06:48:25;7.70;;;6.90;;
19971;SDS011;10147;16.402;102.848;2022-08-19T06:50:56;9.35;;;8.30;;
19971;SDS011;10147;16.402;102.848;2022-08-19T06:53:26;7.47;;;6.78;;
19971;SDS011;10147;16.402;102.848;2022-08-19T06:55:59;8.63;;;7.28;;
19971;SDS011;10147;16.402;102.848;2022-08-19T06:58:31;10.30;;;7.15;;
19971;SDS011;10147;16.402;102.848;2022-08-19T07:01:02;7.45;;;6.50;;
19971;SDS011;10147;16.402;102.848;2022-08-19T07:03:36;13.18;;;6.13;;
19971;SDS011;10147;16.402;102.848;2022-08-19T07:06:10;8.60;;;6.43;;
19971;SDS011;10147;16.402;102.848;2022-08-19T07:09:00;10.07;;;6.57;;
19971;SDS011;10147;16.402;102.848;2022-08-19T07:11:32;9.45;;;6.30;;
19971;SDS011;10147;16.402;102.848;2022-08-19T07:14:02;9.85;;;6.32;;
19971;SDS011;10147;16.402;102.848;2022-08-19T07:16:47;11.00;;;6.00;;
19971;SDS011;10147;16.402;102.848;2022-08-19T07:19:18;6.88;;;6.18;;
19971;SDS011;10147;16.402;102.848;2022-08-19T07:21:49;7.55;;;6.60;;
19971;SDS011;10147;16.402;102.848;2022-08-19T07:24:23;7.72;;;5.93;;
19971;SDS011;10147;16.402;102.848;2022-08-19T07:27:00;8.20;;;6.15;;
19971;SDS011;10147;16.402;102.848;2022-08-19T07:29:41;7.05;;;5.72;;
19971;SDS011;10147;16.402;102.848;2022-08-19T07:32:22;8.30;;;6.15;;
19971;SDS011;10147;16.402;102.848;2022-08-19T07:34:56;9.43;;;6.00;;
19971;SDS011;10147;16.402;102.848;2022-08-19T07:37:29;10.10;;;5.90;;
19971;SDS011;10147;16.402;102.848;2022-08-19T07:40:00;8.80;;;5.68;;
19971;SDS011;10147;16.402;102.848;2022-08-19T07:42:31;10.50;;;6.20;;
19971;SDS011;10147;16.402;102.848;2022-08-19T07:45:02;10.10;;;5.60;;
19971;SDS011;10147;16.402;102.848;2022-08-19T07:47:36;9.27;;;6.35;;
19971;SDS011;10147;16.402;102.848;2022-08-19T07:50:25;6.68;;;5.93;;
19971;SDS011;10147;16.402;102.848;2022-08-19T07:52:55;7.93;;;6.38;;
19971;SDS011;10147;16.402;102.848;2022-08-19T07:55:25;8.63;;;6.30;;
19971;SDS011;10147;16.402;102.848;2022-08-19T07:58:10;13.63;;;7.15;;
19971;SDS011;10147;16.402;102.848;2022-08-19T08:00:41;9.43;;;6.28;;
19971;SDS011;10147;16.402;102.848;2022-08-19T08:03:12;9.55;;;5.57;;
19971;SDS011;10147;16.402;102.848;2022-08-19T08:05:44;7.97;;;5.90;;
19971;SDS011;10147;16.402;102.848;2022-08-19T08:08:35;11.80;;;5.75;;
19971;SDS011;10147;16.402;102.848;2022-08-19T08:11:17;10.73;;;6.00;;
19971;SDS011;10147;16.402;102.848;2022-08-19T08:13:50;11.18;;;6.03;;
19971;SDS011;10147;16.402;102.848;2022-08-19T08:16:28;7.57;;;5.00;;
19971;SDS011;10147;16.402;102.848;2022-08-19T08:19:02;10.10;;;5.22;;
19971;SDS011;10147;16.402;102.848;2022-08-19T08:21:47;9.40;;;6.00;;
19971;SDS011;10147;16.402;102.848;2022-08-19T08:24:17;11.63;;;6.40;;
19971;SDS011;10147;16.402;102.848;2022-08-19T08:26:55;10.05;;;6.75;;
19971;SDS011;10147;16.402;102.848;2022-08-19T08:29:26;6.20;;;5.50;;
19971;SDS011;10147;16.402;102.848;2022-08-19T08:32:01;9.63;;;6.57;;
19971;SDS011;10147;16.402;102.848;2022-08-19T08:34:40;13.60;;;6.22;;
19971;SDS011;10147;16.402;102.848;2022-08-19T08:37:13;11.98;;;5.90;;
19971;SDS011;10147;16.402;102.848;2022-08-19T08:39:44;11.52;;;6.18;;
19971;SDS011;10147;16.402;102.848;2022-08-19T08:42:28;11.48;;;6.30;;
19971;SDS011;10147;16.402;102.848;2022-08-19T08:45:00;10.25;;;5.90;;
19971;SDS011;10147;16.402;102.848;2022-08-19T08:47:34;12.25;;;6.55;;
19971;SDS011;10147;16.402;102.848;2022-08-19T08:50:10;8.77;;;5.82;;
19971;SDS011;10147;16.402;102.848;2022-08-19T08:52:45;9.45;;;6.63;;
19971;SDS011;10147;16.402;102.848;2022-08-19T08:55:18;12.20;;;6.93;;
19971;SDS011;10147;16.402;102.848;2022-08-19T08:57:53;17.60;;;13.00;;
19971;SDS011;10147;16.402;102.848;2022-08-19T09:00:44;12.45;;;7.88;;
19971;SDS011;10147;16.402;102.848;2022-08-19T09:03:17;8.45;;;6.97;;
19971;SDS011;10147;16.402;102.848;2022-08-19T09:05:55;9.25;;;6.85;;
19971;SDS011;10147;16.402;102.848;2022-08-19T09:08:30;9.55;;;6.05;;
19971;SDS011;10147;16.402;102.848;2022-08-19T09:11:05;8.25;;;6.35;;
19971;SDS011;10147;16.402;102.848;2022-08-19T09:16:29;12.48;;;6.55;;
19971;SDS011;10147;16.402;102.848;2022-08-19T09:19:04;8.32;;;6.32;;
19971;SDS011;10147;16.402;102.848;2022-08-19T09:21:34;13.80;;;11.93;;
19971;SDS011;10147;16.402;102.848;2022-08-19T09:24:07;10.35;;;6.65;;
19971;SDS011;10147;16.402;102.848;2022-08-19T09:26:37;7.65;;;7.00;;
19971;SDS011;10147;16.402;102.848;2022-08-19T09:29:19;9.98;;;8.15;;
19971;SDS011;10147;16.402;102.848;2022-08-19T09:31:49;13.63;;;9.10;;
19971;SDS011;10147;16.402;102.848;2022-08-19T09:34:20;12.90;;;9.10;;
19971;SDS011;10147;16.402;102.848;2022-08-19T09:36:50;12.43;;;8.95;;
19971;SDS011;10147;16.402;102.848;2022-08-19T09:39:22;12.65;;;9.15;;
19971;SDS011;10147;16.402;102.848;2022-08-19T09:42:02;12.93;;;9.70;;
19971;SDS011;10147;16.402;102.848;2022-08-19T09:44:46;12.43;;;9.40;;
19971;SDS011;10147;16.402;102.848;2022-08-19T09:47:16;10.23;;;8.93;;
19971;SDS011;10147;16.402;102.848;2022-08-19T09:49:49;10.13;;;9.05;;
19971;SDS011;10147;16.402;102.848;2022-08-19T09:52:20;10.05;;;8.50;;
19971;SDS011;10147;16.402;102.848;2022-08-19T09:54:54;13.05;;;9.50;;
19971;SDS011;10147;16.402;102.848;2022-08-19T09:57:24;8.68;;;7.57;;
19971;SDS011;10147;16.402;102.848;2022-08-19T09:59:54;8.90;;;7.68;;
19971;SDS011;10147;16.402;102.848;2022-08-19T10:02:24;9.48;;;7.55;;
19971;SDS011;10147;16.402;102.848;2022-08-19T10:04:55;8.02;;;7.20;;
19971;SDS011;10147;16.402;102.848;2022-08-19T10:07:52;9.88;;;7.72;;
19971;SDS011;10147;16.402;102.848;2022-08-19T10:10:23;10.77;;;8.00;;
19971;SDS011;10147;16.402;102.848;2022-08-19T10:12:53;12.40;;;8.32;;
19971;SDS011;10147;16.402;102.848;2022-08-19T10:15:25;12.23;;;9.38;;
19971;SDS011;10147;16.402;102.848;2022-08-19T10:17:55;11.02;;;9.00;;
19971;SDS011;10147;16.402;102.848;2022-08-19T10:20:27;19.52;;;11.82;;
19971;SDS011;10147;16.402;102.848;2022-08-19T10:22:58;18.05;;;12.45;;
19971;SDS011;10147;16.402;102.848;2022-08-19T10:25:31;13.80;;;12.45;;
19971;SDS011;10147;16.402;102.848;2022-08-19T10:28:04;13.30;;;12.10;;
19971;SDS011;10147;16.402;102.848;2022-08-19T10:30:38;13.60;;;10.63;;
19971;SDS011;10147;16.402;102.848;2022-08-19T10:33:08;15.10;;;12.18;;
19971;SDS011;10147;16.402;102.848;2022-08-19T10:35:38;16.08;;;14.57;;
19971;SDS011;10147;16.402;102.848;2022-08-19T10:38:24;16.70;;;13.13;;
19971;SDS011;10147;16.402;102.848;2022-08-19T10:41:07;15.02;;;13.52;;
19971;SDS011;10147;16.402;102.848;2022-08-19T10:43:38;22.08;;;19.77;;
19971;SDS011;10147;16.402;102.848;2022-08-19T10:46:11;16.52;;;14.13;;
19971;SDS011;10147;16.402;102.848;2022-08-19T10:48:43;22.20;;;16.88;;
19971;SDS011;10147;16.402;102.848;2022-08-19T10:51:16;54.88;;;50.67;;
19971;SDS011;10147;16.402;102.848;2022-08-19T10:54:14;57.28;;;52.88;;
19971;SDS011;10147;16.402;102.848;2022-08-19T10:56:58;21.13;;;18.85;;
19971;SDS011;10147;16.402;102.848;2022-08-19T10:59:28;19.88;;;17.77;;
19971;SDS011;10147;16.402;102.848;2022-08-19T11:02:03;20.35;;;15.73;;
19971;SDS011;10147;16.402;102.848;2022-08-19T11:04:33;15.77;;;13.98;;
19971;SDS011;10147;16.402;102.848;2022-08-19T11:07:04;16.15;;;14.48;;
19971;SDS011;10147;16.402;102.848;2022-08-19T11:09:39;14.65;;;13.35;;
19971;SDS011;10147;16.402;102.848;2022-08-19T11:12:10;16.08;;;14.43;;
19971;SDS011;10147;16.402;102.848;2022-08-19T11:14:41;18.88;;;15.48;;
19971;SDS011;10147;16.402;102.848;2022-08-19T11:17:11;15.95;;;14.25;;
19971;SDS011;10147;16.402;102.848;2022-08-19T11:19:43;16.35;;;14.75;;
19971;SDS011;10147;16.402;102.848;2022-08-19T11:22:13;20.40;;;16.20;;
19971;SDS011;10147;16.402;102.848;2022-08-19T11:24:46;24.75;;;22.38;;
19971;SDS011;10147;16.402;102.848;2022-08-19T11:27:16;23.38;;;21.38;;
19971;SDS011;10147;16.402;102.848;2022-08-19T11:29:47;18.33;;;16.42;;
19971;SDS011;10147;16.402;102.848;2022-08-19T11:32:17;17.45;;;15.38;;
19971;SDS011;10147;16.402;102.848;2022-08-19T11:34:47;15.93;;;13.95;;
19971;SDS011;10147;16.402;102.848;2022-08-19T11:37:17;19.13;;;16.13;;
19971;SDS011;10147;16.402;102.848;2022-08-19T11:39:48;16.52;;;14.93;;
19971;SDS011;10147;16.402;102.848;2022-08-19T11:42:20;16.00;;;14.60;;
19971;SDS011;10147;16.402;102.848;2022-08-19T11:45:10;15.65;;;13.30;;
19971;SDS011;10147;16.402;102.848;2022-08-19T11:47:42;14.38;;;11.50;;
19971;SDS011;10147;16.402;102.848;2022-08-19T11:50:14;12.43;;;10.82;;
19971;SDS011;10147;16.402;102.848;2022-08-19T11:52:45;15.75;;;12.32;;
19971;SDS011;10147;16.402;102.848;2022-08-19T11:55:18;26.45;;;23.05;;
19971;SDS011;10147;16.402;102.848;2022-08-19T11:57:49;33.38;;;24.45;;
19971;SDS011;10147;16.402;102.848;2022-08-19T12:00:19;20.88;;;17.70;;
19971;SDS011;10147;16.402;102.848;2022-08-19T12:02:51;18.63;;;13.93;;
19971;SDS011;10147;16.402;102.848;2022-08-19T12:05:21;21.98;;;14.18;;
19971;SDS011;10147;16.402;102.848;2022-08-19T12:07:51;20.02;;;11.65;;
19971;SDS011;10147;16.402;102.848;2022-08-19T12:10:23;19.17;;;14.23;;
19971;SDS011;10147;16.402;102.848;2022-08-19T12:12:54;25.85;;;19.15;;
19971;SDS011;10147;16.402;102.848;2022-08-19T12:15:26;31.60;;;21.80;;
19971;SDS011;10147;16.402;102.848;2022-08-19T12:18:04;21.90;;;19.55;;
19971;SDS011;10147;16.402;102.848;2022-08-19T12:20:36;23.67;;;19.90;;
19971;SDS011;10147;16.402;102.848;2022-08-19T12:23:08;24.80;;;20.85;;
19971;SDS011;10147;16.402;102.848;2022-08-19T12:25:47;24.25;;;19.02;;
19971;SDS011;10147;16.402;102.848;2022-08-19T12:28:22;20.70;;;18.23;;
19971;SDS011;10147;16.402;102.848;2022-08-19T12:30:53;20.40;;;14.65;;
19971;SDS011;10147;16.402;102.848;2022-08-19T12:33:25;18.02;;;13.98;;
19971;SDS011;10147;16.402;102.848;2022-08-19T12:36:02;22.00;;;18.50;;
19971;SDS011;10147;16.402;102.848;2022-08-19T12:38:34;29.30;;;21.67;;
19971;SDS011;10147;16.402;102.848;2022-08-19T12:41:08;28.73;;;19.20;;
19971;SDS011;10147;16.402;102.848;2022-08-19T12:43:40;21.33;;;18.60;;
19971;SDS011;10147;16.402;102.848;2022-08-19T12:46:11;21.02;;;17.70;;
19971;SDS011;10147;16.402;102.848;2022-08-19T12:48:44;18.30;;;16.17;;
19971;SDS011;10147;16.402;102.848;2022-08-19T12:51:20;17.17;;;13.15;;
19971;SDS011;10147;16.402;102.848;2022-08-19T12:53:55;26.48;;;16.85;;
19971;SDS011;10147;16.402;102.848;2022-08-19T12:56:25;20.52;;;18.50;;
19971;SDS011;10147;16.402;102.848;2022-08-19T12:58:56;21.60;;;18.52;;
19971;SDS011;10147;16.402;102.848;2022-08-19T13:01:26;20.67;;;18.52;;
19971;SDS011;10147;16.402;102.848;2022-08-19T13:03:59;20.45;;;18.30;;
19971;SDS011;10147;16.402;102.848;2022-08-19T13:06:30;20.60;;;17.30;;
19971;SDS011;10147;16.402;102.848;2022-08-19T13:09:02;19.15;;;15.75;;
19971;SDS011;10147;16.402;102.848;2022-08-19T13:11:34;17.58;;;14.02;;
19971;SDS011;10147;16.402;102.848;2022-08-19T13:14:04;21.33;;;14.93;;
19971;SDS011;10147;16.402;102.848;2022-08-19T13:16:35;54.75;;;39.95;;
19971;SDS011;10147;16.402;102.848;2022-08-19T13:19:06;26.00;;;20.38;;
19971;SDS011;10147;16.402;102.848;2022-08-19T13:21:36;20.00;;;13.88;;
19971;SDS011;10147;16.402;102.848;2022-08-19T13:24:08;13.25;;;10.32;;
19971;SDS011;10147;16.402;102.848;2022-08-19T13:26:42;14.20;;;9.52;;
19971;SDS011;10147;16.402;102.848;2022-08-19T13:29:12;12.43;;;8.65;;
19971;SDS011;10147;16.402;102.848;2022-08-19T13:32:02;13.13;;;10.88;;
19971;SDS011;10147;16.402;102.848;2022-08-19T13:34:53;13.02;;;11.60;;
19971;SDS011;10147;16.402;102.848;2022-08-19T13:37:24;14.35;;;8.98;;
19971;SDS011;10147;16.402;102.848;2022-08-19T13:40:16;13.40;;;9.65;;
19971;SDS011;10147;16.402;102.848;2022-08-19T13:42:51;8.95;;;7.53;;
19971;SDS011;10147;16.402;102.848;2022-08-19T13:45:24;14.05;;;8.20;;
19971;SDS011;10147;16.402;102.848;2022-08-19T13:47:56;11.68;;;8.85;;
19971;SDS011;10147;16.402;102.848;2022-08-19T13:50:28;14.70;;;11.35;;
19971;SDS011;10147;16.402;102.848;2022-08-19T13:53:00;18.42;;;13.35;;
19971;SDS011;10147;16.402;102.848;2022-08-19T13:55:31;16.45;;;12.38;;
19971;SDS011;10147;16.402;102.848;2022-08-19T13:58:01;20.13;;;12.27;;
19971;SDS011;10147;16.402;102.848;2022-08-19T14:00:36;14.25;;;10.18;;
19971;SDS011;10147;16.402;102.848;2022-08-19T14:03:12;18.23;;;12.63;;
19971;SDS011;10147;16.402;102.848;2022-08-19T14:05:42;15.65;;;12.27;;
19971;SDS011;10147;16.402;102.848;2022-08-19T14:08:12;14.93;;;12.60;;
19971;SDS011;10147;16.402;102.848;2022-08-19T14:10:43;16.08;;;10.95;;
19971;SDS011;10147;16.402;102.848;2022-08-19T14:13:15;12.35;;;9.23;;
19971;SDS011;10147;16.402;102.848;2022-08-19T14:15:48;12.60;;;8.57;;
19971;SDS011;10147;16.402;102.848;2022-08-19T14:18:19;12.35;;;7.80;;
19971;SDS011;10147;16.402;102.848;2022-08-19T14:20:54;10.65;;;7.78;;
19971;SDS011;10147;16.402;102.848;2022-08-19T14:23:26;12.98;;;7.95;;
19971;SDS011;10147;16.402;102.848;2022-08-19T14:26:06;10.63;;;7.28;;
19971;SDS011;10147;16.402;102.848;2022-08-19T14:28:38;12.20;;;9.82;;
19971;SDS011;10147;16.402;102.848;2022-08-19T14:31:14;12.02;;;9.18;;
19971;SDS011;10147;16.402;102.848;2022-08-19T14:33:47;37.70;;;31.00;;
19971;SDS011;10147;16.402;102.848;2022-08-19T14:36:22;46.05;;;36.85;;
19971;SDS011;10147;16.402;102.848;2022-08-19T14:38:55;29.77;;;23.52;;
19971;SDS011;10147;16.402;102.848;2022-08-19T14:41:26;16.52;;;14.00;;
19971;SDS011;10147;16.402;102.848;2022-08-19T14:43:58;18.10;;;13.45;;
19971;SDS011;10147;16.402;102.848;2022-08-19T14:46:29;19.55;;;14.73;;